createdAt,value
2018-04-27T00:08:37.315Z,0
2018-04-27T00:18:37.294Z,0
2018-04-27T00:28:38.376Z,0
2018-04-27T00:38:37.300Z,0
2018-04-27T00:48:37.297Z,0
2018-04-27T00:58:37.355Z,0
2018-04-27T01:08:37.323Z,0
2018-04-27T01:18:37.334Z,0
2018-04-27T01:28:37.348Z,0
2018-04-27T01:38:37.391Z,0
2018-04-27T01:48:37.459Z,0
2018-04-27T01:58:37.374Z,0
2018-04-27T02:08:37.411Z,0
2018-04-27T02:18:37.408Z,0
2018-04-27T02:28:37.383Z,0
2018-04-27T02:38:38.072Z,0
2018-04-27T02:48:37.416Z,0
2018-04-27T02:58:37.413Z,0
2018-04-27T03:08:37.430Z,0
2018-04-27T03:18:37.409Z,0
2018-04-27T03:28:37.418Z,0
2018-04-27T03:38:37.414Z,4
2018-04-27T03:48:37.488Z,20
2018-04-27T03:58:38.588Z,80
2018-04-27T04:08:37.469Z,216
2018-04-27T04:18:37.531Z,388
2018-04-27T04:28:37.501Z,652
2018-04-27T04:38:37.488Z,976
2018-04-27T04:48:37.488Z,1348
2018-04-27T04:58:37.510Z,2144
2018-04-27T05:08:37.551Z,2732
2018-04-27T05:18:38.589Z,3164
2018-04-27T05:28:37.509Z,3464
2018-04-27T05:38:37.560Z,3592
2018-04-27T05:48:38.595Z,4400
2018-04-27T05:58:37.560Z,5108
2018-04-27T06:08:37.612Z,6468
2018-04-27T06:18:37.596Z,7140
2018-04-27T06:28:37.596Z,9356
2018-04-27T06:38:38.093Z,10592
2018-04-27T06:48:37.720Z,10352
2018-04-27T06:59:20.211Z,10192
2018-04-27T07:09:23.715Z,12352
2018-04-27T07:18:37.622Z,20416
2018-04-27T07:28:37.842Z,42784
2018-04-27T07:38:37.807Z,44736
2018-04-27T07:48:37.767Z,48320
2018-04-27T07:58:37.837Z,41344
2018-04-27T08:08:37.880Z,37152
2018-04-27T08:18:37.893Z,40800
2018-04-27T08:28:37.664Z,29664
2018-04-27T08:38:37.704Z,23936
2018-04-27T08:48:37.671Z,18784
2018-04-27T08:58:37.741Z,17236
2018-04-27T09:08:37.653Z,19136
2018-04-27T09:18:37.692Z,21152
2018-04-27T09:28:37.685Z,21152
2018-04-27T09:38:37.805Z,20640
2018-04-27T09:48:37.887Z,21024
2018-04-27T09:58:37.792Z,20288
2018-04-27T10:08:37.684Z,18688
2018-04-27T10:18:37.760Z,18528
2018-04-27T10:28:37.631Z,16364
2018-04-27T10:38:37.779Z,17696
2018-04-27T10:48:37.725Z,13564
2018-04-27T10:58:38.482Z,14720
2018-04-27T11:08:38.129Z,14872
2018-04-27T11:38:38.644Z,14792
2018-04-27T11:48:41.409Z,11592
2018-04-27T11:58:37.700Z,10804
2018-04-27T12:09:03.055Z,13632
2018-04-27T12:18:37.729Z,11424
2018-04-27T12:28:37.693Z,9244
2018-04-27T12:38:37.680Z,10612
2018-04-27T12:48:37.690Z,10236
2018-04-27T13:08:43.826Z,10564
2018-04-27T13:18:37.732Z,8552
2018-04-27T13:28:46.271Z,16316
2018-04-27T13:38:37.738Z,9584
2018-04-27T13:48:37.733Z,10988
2018-04-27T14:28:37.812Z,6864
2018-04-27T14:38:42.442Z,12968
2018-04-27T14:58:37.760Z,5940
2018-04-27T15:08:37.724Z,4972
2018-04-27T15:18:37.821Z,5064
2018-04-27T15:28:37.710Z,6468
2018-04-27T15:38:50.036Z,4532
2018-04-27T15:48:37.773Z,4104
2018-04-27T15:58:38.375Z,3816
2018-04-27T16:08:37.755Z,4112
2018-04-27T16:18:37.742Z,4056
2018-04-27T16:38:49.896Z,4396
2018-04-27T16:48:37.746Z,4948
2018-04-27T16:58:37.733Z,4180
2018-04-27T17:08:37.767Z,4132
2018-04-27T17:18:37.724Z,2684
2018-04-27T17:28:38.931Z,2224
2018-04-27T17:38:37.777Z,2236
2018-04-27T17:48:37.795Z,1900
2018-04-27T17:58:37.767Z,1540
2018-04-27T18:28:38.625Z,588
2018-04-27T18:58:37.768Z,52
2018-04-27T20:08:37.771Z,0
2018-04-27T20:18:37.806Z,0
2018-04-27T20:38:45.052Z,0
2018-04-27T21:08:37.731Z,0
2018-04-27T21:18:37.882Z,0
2018-04-27T21:28:37.890Z,0
2018-04-27T22:08:43.316Z,0
2018-04-27T22:18:37.685Z,0
2018-04-27T22:28:37.896Z,0
2018-04-27T22:38:38.061Z,0
2018-04-27T22:48:37.914Z,0
2018-04-27T22:58:38.360Z,0
2018-04-27T23:08:37.909Z,0
2018-04-27T23:18:37.885Z,0
2018-04-27T23:28:37.731Z,0
2018-04-27T23:38:37.700Z,0
2018-04-27T23:48:37.743Z,0
2018-04-27T23:58:37.769Z,0
